Time;durP1;ratioP1;P1;durP2;ratioP2;P2;SDS_P1;SDS_P2;PMS_P1;PMS_P2;Temp;Humidity;BMP_temperature;BMP_pressure;BME280_temperature;BME280_humidity;BME280_pressure;Samples;Min_cycle;Max_cycle;Signal;HPM_P1;HPM_P2
2023/03/31 00:01:05;;;;;;;3.40;2.70;;;10.90;99.90;;;;;;5076754;28;20565;-68
2023/03/31 00:03:32;;;;;;;6.63;2.97;;;10.90;99.90;;;;;;5076657;28;20504;-68
2023/03/31 00:06:00;;;;;;;9.60;3.10;;;11.00;99.90;;;;;;5076722;28;20486;-68
2023/03/31 00:08:34;;;;;;;7.07;2.77;;;11.00;99.90;;;;;;5076765;28;20462;-68
2023/03/31 00:11:02;;;;;;;10.43;2.80;;;11.00;99.90;;;;;;5076389;28;20470;-68
2023/03/31 00:13:30;;;;;;;12.93;3.00;;;10.90;99.90;;;;;;5076553;28;20458;-68
2023/03/31 00:15:57;;;;;;;5.73;3.30;;;10.90;99.90;;;;;;5076762;28;20464;-68
2023/03/31 00:18:25;;;;;;;6.33;2.70;;;10.90;99.90;;;;;;5077477;28;20553;-67
2023/03/31 00:20:53;;;;;;;6.33;3.10;;;10.90;99.90;;;;;;5080057;28;20485;-66
2023/03/31 00:23:26;;;;;;;6.43;2.77;;;11.00;99.90;;;;;;5080442;28;20454;-68
2023/03/31 00:25:55;;;;;;;4.93;3.03;;;11.00;99.90;;;;;;5080363;28;20449;-68
2023/03/31 00:28:22;;;;;;;5.20;2.40;;;11.00;99.90;;;;;;5079703;28;20465;-66
2023/03/31 00:30:49;;;;;;;4.07;2.30;;;11.00;99.90;;;;;;5080220;28;20450;-67
2023/03/31 00:33:16;;;;;;;3.50;2.10;;;10.90;99.90;;;;;;5079424;28;20454;-68
2023/03/31 00:35:44;;;;;;;6.57;2.80;;;10.90;99.90;;;;;;5079201;28;20462;-68
2023/03/31 00:38:12;;;;;;;6.57;2.60;;;11.00;99.90;;;;;;5078255;28;20454;-68
2023/03/31 00:40:46;;;;;;;2.90;2.30;;;11.00;99.90;;;;;;5078497;28;20458;-68
2023/03/31 00:43:28;;;;;;;5.33;2.20;;;10.90;99.90;;;;;;5078220;28;20918;-68
2023/03/31 00:46:02;;;;;;;5.50;2.50;;;11.00;99.90;;;;;;5078376;28;20438;-68
2023/03/31 00:48:29;;;;;;;5.33;2.80;;;11.00;99.90;;;;;;5078361;28;20526;-68
2023/03/31 00:50:59;;;;;;;5.03;2.50;;;10.90;99.90;;;;;;5077915;28;20446;-68
2023/03/31 00:53:30;;;;;;;6.20;2.33;;;10.90;99.90;;;;;;5077747;28;20445;-67
2023/03/31 00:56:02;;;;;;;5.90;2.87;;;10.90;99.90;;;;;;5077634;28;20473;-67
2023/03/31 00:58:32;;;;;;;5.70;2.33;;;10.90;99.90;;;;;;5077571;28;20443;-67
2023/03/31 01:01:01;;;;;;;5.10;2.00;;;10.90;99.90;;;;;;5077720;28;20509;-67
2023/03/31 01:03:29;;;;;;;4.90;1.93;;;10.90;99.90;;;;;;5077543;28;20549;-67
2023/03/31 01:05:59;;;;;;;6.30;2.27;;;10.90;99.90;;;;;;5077472;28;20946;-66
2023/03/31 01:08:27;;;;;;;3.70;2.20;;;11.00;99.90;;;;;;5077716;28;20438;-67
2023/03/31 01:10:57;;;;;;;4.13;2.10;;;11.00;99.90;;;;;;5077010;28;20549;-67
2023/03/31 01:13:24;;;;;;;4.90;1.80;;;11.00;99.90;;;;;;5077489;28;20454;-68
2023/03/31 01:15:53;;;;;;;5.30;2.20;;;10.90;99.90;;;;;;5077423;28;20466;-67
2023/03/31 01:18:23;;;;;;;5.80;2.37;;;10.90;99.90;;;;;;5077778;28;20458;-67
2023/03/31 01:21:17;;;;;;;6.73;2.70;;;10.90;99.90;;;;;;5077341;28;20832;-68
2023/03/31 01:24:24;;;;;;;4.50;2.20;;;10.80;99.90;;;;;;5077443;28;20438;-67
2023/03/31 01:27:01;;;;;;;3.17;2.37;;;10.70;99.90;;;;;;5046670;28;20468;-67
2023/03/31 01:29:52;;;;;;;5.07;2.10;;;10.70;99.90;;;;;;5076939;28;20620;-68
2023/03/31 01:33:00;;;;;;;6.00;3.80;;;10.70;99.90;;;;;;5077147;28;20449;-68
2023/03/31 01:36:05;;;;;;;5.60;2.23;;;10.50;99.90;;;;;;5051334;28;20490;-68
2023/03/31 01:39:01;;;;;;;8.60;3.30;;;10.60;99.90;;;;;;5049362;28;20826;-68
2023/03/31 01:41:39;;;;;;;4.17;2.10;;;10.60;99.90;;;;;;5076376;28;20482;-68
2023/03/31 01:44:16;;;;;;;7.70;2.13;;;10.50;99.90;;;;;;5076604;28;20472;-68
2023/03/31 01:46:52;;;;;;;4.60;2.60;;;10.50;99.90;;;;;;5076744;28;20502;-68
2023/03/31 01:49:24;;;;;;;5.43;2.50;;;10.50;99.90;;;;;;5076248;28;20442;-68
2023/03/31 01:52:00;;;;;;;6.70;2.00;;;10.50;99.90;;;;;;5076541;28;20439;-67
2023/03/31 01:54:38;;;;;;;6.93;2.57;;;10.40;99.90;;;;;;5076224;28;20571;-67
2023/03/31 01:57:12;;;;;;;5.30;2.00;;;10.50;99.90;;;;;;5076464;28;20468;-67
2023/03/31 01:59:50;;;;;;;3.53;2.27;;;10.50;99.90;;;;;;5076917;28;20442;-67
2023/03/31 02:02:21;;;;;;;3.90;1.90;;;10.50;99.90;;;;;;5076112;28;20493;-67
2023/03/31 02:04:51;;;;;;;3.27;1.70;;;10.40;99.90;;;;;;5075915;28;20490;-67
2023/03/31 02:07:22;;;;;;;5.03;2.10;;;10.40;99.90;;;;;;5076877;28;20464;-66
2023/03/31 02:09:53;;;;;;;9.10;2.07;;;10.40;99.90;;;;;;5076057;28;20786;-67
2023/03/31 02:12:25;;;;;;;5.73;1.97;;;10.50;99.90;;;;;;5075640;28;20545;-67
2023/03/31 02:14:55;;;;;;;4.90;1.80;;;10.40;99.90;;;;;;5075799;28;20452;-67
2023/03/31 02:17:29;;;;;;;7.47;2.63;;;10.40;99.90;;;;;;5075992;28;20747;-67
2023/03/31 02:19:59;;;;;;;5.90;2.83;;;10.40;99.90;;;;;;5075848;28;20469;-67
2023/03/31 02:22:29;;;;;;;3.40;1.80;;;10.50;99.90;;;;;;5075588;28;20477;-67
2023/03/31 02:24:57;;;;;;;7.87;1.90;;;10.50;99.90;;;;;;5075776;28;20542;-67
2023/03/31 02:27:28;;;;;;;5.93;1.97;;;10.40;99.90;;;;;;5075390;28;20458;-67
2023/03/31 02:29:56;;;;;;;3.13;1.57;;;10.40;99.90;;;;;;5075655;28;20438;-67
2023/03/31 02:32:30;;;;;;;5.17;1.70;;;10.40;99.90;;;;;;5075309;28;20462;-68
2023/03/31 02:34:58;;;;;;;5.37;2.00;;;10.40;99.90;;;;;;5075690;28;20766;-67
2023/03/31 02:37:26;;;;;;;5.70;2.00;;;10.50;99.90;;;;;;5075273;28;20851;-67
2023/03/31 02:39:55;;;;;;;3.73;1.40;;;10.50;99.90;;;;;;5075620;28;20458;-68
2023/03/31 02:42:22;;;;;;;2.67;1.80;;;10.50;99.90;;;;;;5074798;28;20482;-68
2023/03/31 02:44:50;;;;;;;4.70;1.70;;;10.50;99.90;;;;;;5075913;28;20523;-68
2023/03/31 02:47:20;;;;;;;5.10;1.87;;;10.50;99.90;;;;;;5075598;28;20458;-68
2023/03/31 02:49:51;;;;;;;3.17;1.80;;;10.50;99.90;;;;;;5075301;28;20446;-68
2023/03/31 02:52:44;;;;;;;5.60;1.90;;;10.60;99.90;;;;;;5075380;28;20460;-68
2023/03/31 02:55:18;;;;;;;3.60;1.73;;;10.50;99.90;;;;;;5075270;28;20454;-68
2023/03/31 02:58:17;;;;;;;5.93;1.70;;;10.60;99.90;;;;;;5074945;28;20526;-68
2023/03/31 03:01:01;;;;;;;3.63;1.80;;;10.50;99.90;;;;;;5075165;28;20461;-68
2023/03/31 03:03:38;;;;;;;3.07;2.30;;;10.50;99.90;;;;;;5074609;28;20788;-68
2023/03/31 03:06:16;;;;;;;4.40;2.00;;;10.50;99.90;;;;;;5075212;28;20532;-68
2023/03/31 03:09:01;;;;;;;4.10;1.60;;;10.50;99.90;;;;;;5074824;28;20438;-68
2023/03/31 03:11:38;;;;;;;4.07;1.30;;;10.60;99.90;;;;;;5074778;28;20909;-67
2023/03/31 03:14:12;;;;;;;3.20;1.53;;;10.60;99.90;;;;;;5075131;28;20452;-68
2023/03/31 03:16:45;;;;;;;3.60;1.50;;;10.50;99.90;;;;;;5075069;28;20442;-67
2023/03/31 03:19:19;;;;;;;5.70;1.53;;;10.50;99.90;;;;;;5074816;28;20443;-68
2023/03/31 03:21:46;;;;;;;2.13;1.47;;;10.50;99.90;;;;;;5074828;28;20484;-68
2023/03/31 03:24:14;;;;;;;3.43;1.40;;;10.50;99.90;;;;;;5074548;28;20454;-68
2023/03/31 03:26:41;;;;;;;2.43;1.70;;;10.50;99.90;;;;;;5075137;28;20527;-68
2023/03/31 03:29:08;;;;;;;2.33;1.27;;;10.50;99.90;;;;;;5074709;28;20789;-67
2023/03/31 03:31:35;;;;;;;2.73;1.70;;;10.50;99.90;;;;;;5074579;28;20464;-68
2023/03/31 03:34:03;;;;;;;4.90;1.87;;;10.60;99.90;;;;;;5074543;28;20458;-68
2023/03/31 03:36:30;;;;;;;8.40;1.90;;;10.60;99.90;;;;;;5074441;28;20835;-68
2023/03/31 03:38:57;;;;;;;3.27;1.40;;;10.70;99.90;;;;;;5074254;28;20937;-68
2023/03/31 03:41:24;;;;;;;3.17;1.50;;;10.70;99.90;;;;;;5074495;28;20565;-68
2023/03/31 03:43:50;;;;;;;7.73;2.33;;;10.60;99.90;;;;;;5074235;28;20783;-68
2023/03/31 03:46:17;;;;;;;2.83;1.37;;;10.60;99.90;;;;;;5074411;28;20469;-68
2023/03/31 03:48:45;;;;;;;5.40;1.37;;;10.60;99.90;;;;;;5074353;28;20454;-68
2023/03/31 03:51:13;;;;;;;3.90;1.53;;;10.60;99.90;;;;;;5074534;28;20453;-68
2023/03/31 03:53:40;;;;;;;3.50;1.43;;;10.60;99.90;;;;;;5074137;28;20458;-68
2023/03/31 03:56:07;;;;;;;2.93;1.53;;;10.70;99.90;;;;;;5074590;28;20489;-68
2023/03/31 03:58:33;;;;;;;4.80;2.07;;;10.70;99.90;;;;;;5074046;28;20454;-67
2023/03/31 04:01:01;;;;;;;2.30;1.40;;;10.70;99.90;;;;;;5074028;28;20454;-68
2023/03/31 04:03:28;;;;;;;4.57;2.03;;;10.70;99.90;;;;;;5074045;28;20497;-67
2023/03/31 04:05:54;;;;;;;3.30;1.73;;;10.70;99.90;;;;;;5074108;28;20472;-68
2023/03/31 04:08:23;;;;;;;6.03;1.80;;;10.70;99.90;;;;;;5074025;28;20458;-68
2023/03/31 04:10:51;;;;;;;2.60;1.27;;;10.80;99.90;;;;;;5074359;28;20561;-68
2023/03/31 04:13:18;;;;;;;2.33;1.60;;;10.80;99.90;;;;;;5074534;28;20446;-67
2023/03/31 04:15:46;;;;;;;4.47;1.53;;;10.80;99.90;;;;;;5075137;28;20494;-68
2023/03/31 04:18:17;;;;;;;6.93;1.97;;;10.70;99.90;;;;;;5074451;28;20454;-68
2023/03/31 04:20:44;;;;;;;3.37;1.73;;;10.80;99.90;;;;;;5074633;28;20542;-68
2023/03/31 04:23:13;;;;;;;7.33;1.80;;;10.70;99.90;;;;;;5074125;28;21008;-68
2023/03/31 04:25:45;;;;;;;4.00;1.60;;;10.70;99.90;;;;;;5074586;28;20779;-68
2023/03/31 04:28:13;;;;;;;5.10;1.43;;;10.70;99.90;;;;;;5074342;28;20465;-67
2023/03/31 04:30:40;;;;;;;5.10;1.57;;;10.70;99.90;;;;;;5074766;28;20492;-67
2023/03/31 04:33:07;;;;;;;5.83;1.50;;;10.80;99.90;;;;;;5074122;28;20928;-68
2023/03/31 04:35:47;;;;;;;2.80;1.60;;;10.70;99.90;;;;;;5075009;28;20454;-67
2023/03/31 04:38:17;;;;;;;2.80;1.40;;;10.70;99.90;;;;;;5074422;28;20453;-68
2023/03/31 04:40:46;;;;;;;7.03;2.13;;;10.70;99.90;;;;;;5074723;28;20462;-68
2023/03/31 04:43:13;;;;;;;2.40;1.77;;;10.60;99.90;;;;;;5073751;28;20992;-67
2023/03/31 04:45:40;;;;;;;4.13;1.60;;;10.60;99.90;;;;;;5073925;28;20793;-67
2023/03/31 04:48:07;;;;;;;5.03;1.57;;;10.60;99.90;;;;;;5074045;28;20464;-67
2023/03/31 04:50:35;;;;;;;4.07;1.70;;;10.60;99.90;;;;;;5075077;28;20484;-68
2023/03/31 04:53:02;;;;;;;2.53;1.63;;;10.70;99.90;;;;;;5075521;28;20442;-69
2023/03/31 04:55:29;;;;;;;3.53;1.90;;;10.70;99.90;;;;;;5074969;28;20565;-68
2023/03/31 04:57:58;;;;;;;4.13;1.33;;;10.80;99.90;;;;;;5074715;28;20505;-68
2023/03/31 05:00:25;;;;;;;4.97;1.67;;;10.80;99.90;;;;;;5075054;28;20454;-68
2023/03/31 05:02:52;;;;;;;3.57;1.30;;;10.80;99.90;;;;;;5075128;28;20490;-68
2023/03/31 05:05:20;;;;;;;5.73;1.70;;;10.70;99.90;;;;;;5077353;28;20905;-68
2023/03/31 05:07:47;;;;;;;4.23;1.97;;;10.70;99.90;;;;;;5079085;28;20454;-69
2023/03/31 05:10:14;;;;;;;4.13;1.53;;;10.70;99.90;;;;;;5078993;28;20871;-68
2023/03/31 05:12:41;;;;;;;3.80;1.70;;;10.70;99.90;;;;;;5078866;28;20496;-67
2023/03/31 05:15:10;;;;;;;6.27;2.10;;;10.60;99.90;;;;;;5078843;28;20543;-67
2023/03/31 05:17:37;;;;;;;5.67;2.10;;;10.60;99.90;;;;;;5078353;28;20462;-68
2023/03/31 05:20:06;;;;;;;3.60;1.77;;;10.60;99.90;;;;;;5078870;28;20464;-67
2023/03/31 05:22:35;;;;;;;2.93;1.40;;;10.50;99.90;;;;;;5078961;28;20540;-67
2023/03/31 05:25:02;;;;;;;3.53;1.80;;;10.50;99.90;;;;;;5079580;28;20556;-68
2023/03/31 05:27:29;;;;;;;10.13;2.00;;;10.50;99.90;;;;;;5079034;28;20456;-68
2023/03/31 05:29:57;;;;;;;4.33;2.10;;;10.60;99.90;;;;;;5077743;28;20987;-68
2023/03/31 05:32:26;;;;;;;7.57;1.90;;;10.50;99.90;;;;;;5078046;28;20477;-68
2023/03/31 05:34:55;;;;;;;7.83;2.20;;;10.50;99.90;;;;;;5078378;28;20515;-68
2023/03/31 05:37:24;;;;;;;4.30;2.20;;;10.50;99.90;;;;;;5077797;28;20809;-67
2023/03/31 05:39:51;;;;;;;4.53;1.93;;;10.50;99.90;;;;;;5078283;28;20546;-68
2023/03/31 05:42:18;;;;;;;6.57;2.00;;;10.50;99.90;;;;;;5077878;28;20454;-68
2023/03/31 05:44:45;;;;;;;4.23;1.83;;;10.50;99.90;;;;;;5078197;28;20489;-68
2023/03/31 05:47:12;;;;;;;6.87;2.30;;;10.50;99.90;;;;;;5078160;28;20465;-68
2023/03/31 05:49:41;;;;;;;4.47;1.80;;;10.50;99.90;;;;;;5078353;28;20938;-69
2023/03/31 05:52:08;;;;;;;3.93;1.70;;;10.50;99.90;;;;;;5078112;28;20465;-68
2023/03/31 05:54:35;;;;;;;4.60;1.50;;;10.60;99.90;;;;;;5078019;28;20875;-68
2023/03/31 05:57:02;;;;;;;4.03;1.67;;;10.70;99.90;;;;;;5077682;28;20486;-68
2023/03/31 05:59:29;;;;;;;2.93;1.60;;;10.70;99.90;;;;;;5077515;28;20453;-68
2023/03/31 06:01:57;;;;;;;5.93;1.60;;;10.80;99.90;;;;;;5077987;28;20488;-68
2023/03/31 06:04:24;;;;;;;5.13;1.90;;;10.90;99.90;;;;;;5078011;28;20504;-68
2023/03/31 06:06:52;;;;;;;4.30;2.70;;;11.00;99.90;;;;;;5078295;28;20473;-69
2023/03/31 06:09:20;;;;;;;6.03;2.20;;;11.00;99.90;;;;;;5077853;28;20462;-68
2023/03/31 06:11:47;;;;;;;6.17;2.30;;;10.90;99.90;;;;;;5077640;28;20458;-68
2023/03/31 06:14:14;;;;;;;2.83;1.80;;;10.90;99.90;;;;;;5077686;28;20447;-70
2023/03/31 06:16:40;;;;;;;7.50;2.30;;;10.80;99.90;;;;;;5077050;28;20560;-69
2023/03/31 06:19:08;;;;;;;5.83;2.10;;;10.80;99.90;;;;;;5077973;28;20993;-68
2023/03/31 06:21:35;;;;;;;3.60;1.90;;;10.90;99.90;;;;;;5078145;28;20553;-68
2023/03/31 06:24:03;;;;;;;6.03;2.70;;;10.90;99.90;;;;;;5077858;28;20478;-69
2023/03/31 06:26:30;;;;;;;4.70;2.20;;;10.80;99.90;;;;;;5078958;28;20548;-69
2023/03/31 06:28:57;;;;;;;3.63;1.93;;;10.80;99.90;;;;;;5078955;28;20534;-67
2023/03/31 06:31:26;;;;;;;6.50;2.60;;;10.80;99.90;;;;;;5078729;28;20476;-69
2023/03/31 06:33:53;;;;;;;12.27;3.30;;;10.80;99.90;;;;;;5078527;28;20464;-68
2023/03/31 06:36:21;;;;;;;8.00;2.63;;;10.70;99.90;;;;;;5078258;28;20537;-68
2023/03/31 06:38:49;;;;;;;6.90;2.70;;;10.80;99.90;;;;;;5078025;28;20540;-69
2023/03/31 06:41:19;;;;;;;8.33;2.43;;;10.80;99.90;;;;;;5077528;28;20541;-67
2023/03/31 06:43:46;;;;;;;6.23;2.63;;;10.90;99.90;;;;;;5078372;28;20792;-68
2023/03/31 06:46:13;;;;;;;4.90;2.70;;;10.90;99.90;;;;;;5077577;28;20493;-68
2023/03/31 06:48:41;;;;;;;7.23;2.90;;;11.00;99.90;;;;;;5077629;28;20493;-68
2023/03/31 06:51:09;;;;;;;4.17;2.00;;;11.10;99.90;;;;;;5078343;28;20505;-68
2023/03/31 06:53:37;;;;;;;7.43;2.70;;;11.10;99.90;;;;;;5078078;28;20450;-68
2023/03/31 06:56:04;;;;;;;5.87;2.63;;;11.10;99.90;;;;;;5078115;28;20794;-68
2023/03/31 06:58:33;;;;;;;5.17;2.00;;;11.10;99.90;;;;;;5078479;28;20984;-69
2023/03/31 07:01:02;;;;;;;3.47;2.40;;;11.10;99.90;;;;;;5077398;28;20945;-69
2023/03/31 07:03:29;;;;;;;5.30;2.93;;;11.10;99.90;;;;;;5077543;28;20489;-69
2023/03/31 07:05:56;;;;;;;4.07;2.20;;;11.10;99.90;;;;;;5077895;28;20860;-68
2023/03/31 07:08:24;;;;;;;7.47;2.50;;;11.20;99.90;;;;;;5076454;28;20872;-68
2023/03/31 07:10:56;;;;;;;6.13;2.63;;;11.20;99.90;;;;;;5077632;28;20461;-69
2023/03/31 07:13:23;;;;;;;6.30;2.50;;;11.30;99.90;;;;;;5077431;28;20910;-68
2023/03/31 07:15:52;;;;;;;4.60;2.03;;;11.40;99.90;;;;;;5077095;28;20458;-67
2023/03/31 07:18:19;;;;;;;6.20;2.23;;;11.40;99.90;;;;;;5077151;28;20545;-67
2023/03/31 07:20:49;;;;;;;8.60;2.90;;;11.50;99.90;;;;;;5077370;28;20545;-69
2023/03/31 07:23:16;;;;;;;7.87;2.70;;;11.60;99.90;;;;;;5076509;28;20539;-69
2023/03/31 07:25:44;;;;;;;4.90;2.40;;;11.60;99.90;;;;;;5077005;28;20465;-68
2023/03/31 07:28:11;;;;;;;8.47;3.53;;;11.70;99.90;;;;;;5076136;28;20501;-69
2023/03/31 07:30:37;;;;;;;4.60;2.50;;;11.80;99.90;;;;;;5076770;28;20454;-68
2023/03/31 07:33:06;;;;;;;5.17;2.30;;;11.90;99.90;;;;;;5075615;28;20494;-68
2023/03/31 07:35:33;;;;;;;7.47;2.87;;;12.00;99.90;;;;;;5076093;28;20788;-68
2023/03/31 07:38:00;;;;;;;3.70;2.27;;;12.10;99.90;;;;;;5076119;28;20560;-69
2023/03/31 07:40:28;;;;;;;7.00;3.33;;;12.10;99.90;;;;;;5075708;28;20862;-69
2023/03/31 07:42:55;;;;;;;6.23;2.40;;;12.20;99.90;;;;;;5075196;28;20458;-69
2023/03/31 07:45:25;;;;;;;7.63;2.10;;;12.30;99.90;;;;;;5075846;28;20523;-69
2023/03/31 07:47:52;;;;;;;4.00;2.30;;;12.20;99.90;;;;;;5075783;28;20545;-68
2023/03/31 07:50:22;;;;;;;5.80;2.30;;;12.20;99.90;;;;;;5075888;28;20464;-68
2023/03/31 07:52:49;;;;;;;6.80;2.07;;;12.20;99.90;;;;;;5075938;28;20557;-68
2023/03/31 07:55:16;;;;;;;8.33;2.20;;;12.30;99.90;;;;;;5075691;28;20470;-69
2023/03/31 07:57:44;;;;;;;3.73;2.10;;;12.30;99.90;;;;;;5076069;28;20454;-68
2023/03/31 08:00:12;;;;;;;5.63;2.53;;;12.40;99.90;;;;;;5076373;28;20454;-68
2023/03/31 08:02:40;;;;;;;7.50;2.20;;;12.50;99.90;;;;;;5074836;28;20493;-68
2023/03/31 08:05:07;;;;;;;5.13;2.00;;;12.60;99.90;;;;;;5074875;28;20547;-67
2023/03/31 08:07:36;;;;;;;3.87;2.17;;;12.60;99.90;;;;;;5074934;28;20473;-68
2023/03/31 08:10:05;;;;;;;3.30;2.10;;;12.70;99.90;;;;;;5074806;28;20887;-68
2023/03/31 08:12:31;;;;;;;5.20;2.80;;;12.80;99.90;;;;;;5075409;28;20915;-68
2023/03/31 08:14:58;;;;;;;4.27;2.23;;;12.90;99.90;;;;;;5075402;28;20879;-68
2023/03/31 08:17:25;;;;;;;4.57;2.00;;;12.90;99.90;;;;;;5075491;28;20561;-68
2023/03/31 08:19:52;;;;;;;5.40;2.00;;;13.00;99.90;;;;;;5074766;28;20546;-68
2023/03/31 08:22:19;;;;;;;4.70;1.97;;;13.10;99.90;;;;;;5074705;28;20454;-68
2023/03/31 08:24:47;;;;;;;9.33;2.00;;;13.10;99.90;;;;;;5074490;28;20814;-68
2023/03/31 08:27:14;;;;;;;5.60;2.00;;;13.30;99.90;;;;;;5075187;28;20458;-68
2023/03/31 08:29:41;;;;;;;4.17;1.83;;;13.30;99.90;;;;;;5074467;28;20450;-69
2023/03/31 08:32:08;;;;;;;4.00;1.90;;;13.40;99.90;;;;;;5073978;28;20525;-68
2023/03/31 08:34:35;;;;;;;6.80;2.37;;;13.50;99.90;;;;;;5074480;28;20456;-68
2023/03/31 08:37:02;;;;;;;6.03;2.13;;;13.50;99.90;;;;;;5075309;28;20473;-68
2023/03/31 08:39:29;;;;;;;4.07;2.03;;;13.60;99.90;;;;;;5075805;28;20485;-69
2023/03/31 08:42:00;;;;;;;6.90;2.40;;;13.60;99.90;;;;;;5078756;28;20958;-68
2023/03/31 08:44:34;;;;;;;7.40;1.67;;;13.70;99.90;;;;;;5078776;28;20466;-68
2023/03/31 08:47:02;;;;;;;5.83;2.40;;;13.60;99.90;;;;;;5078740;28;20442;-68
2023/03/31 08:49:33;;;;;;;4.77;2.00;;;13.70;99.90;;;;;;5078887;28;20454;-68
2023/03/31 08:52:04;;;;;;;5.07;2.10;;;13.70;99.90;;;;;;5079276;28;20464;-68
2023/03/31 08:54:34;;;;;;;2.80;1.73;;;13.70;99.90;;;;;;5078462;28;20463;-68
2023/03/31 08:57:06;;;;;;;4.60;1.90;;;13.80;99.90;;;;;;5077815;28;20891;-67
2023/03/31 08:59:36;;;;;;;6.00;2.43;;;13.90;99.90;;;;;;5078427;28;20522;-68
2023/03/31 09:02:13;;;;;;;6.80;2.20;;;14.00;99.90;;;;;;5077517;28;20482;-68
2023/03/31 09:04:56;;;;;;;3.90;2.00;;;14.10;99.90;;;;;;5077855;28;20844;-69
2023/03/31 09:07:33;;;;;;;8.23;2.60;;;14.10;99.90;;;;;;5077841;28;20942;-69
2023/03/31 09:10:10;;;;;;;5.33;2.23;;;14.10;99.90;;;;;;5077996;28;20887;-68
2023/03/31 09:12:47;;;;;;;4.50;2.10;;;14.00;99.90;;;;;;5077924;28;20448;-68
2023/03/31 09:15:24;;;;;;;6.23;2.10;;;14.00;99.90;;;;;;5077924;28;20775;-68
2023/03/31 09:17:54;;;;;;;3.50;2.00;;;14.20;99.90;;;;;;5077470;28;20442;-68
2023/03/31 09:20:27;;;;;;;5.50;2.10;;;14.30;99.90;;;;;;5077584;28;20464;-68
2023/03/31 09:23:00;;;;;;;6.17;1.73;;;14.40;99.90;;;;;;5078302;28;20728;-69
2023/03/31 09:25:31;;;;;;;6.07;2.10;;;14.40;99.90;;;;;;5077304;28;20463;-68
2023/03/31 09:28:02;;;;;;;4.57;1.87;;;14.60;99.90;;;;;;5077506;28;20443;-68
2023/03/31 09:30:31;;;;;;;8.10;2.27;;;14.60;99.90;;;;;;5077373;28;20446;-69
2023/03/31 09:33:11;;;;;;;4.83;2.47;;;14.50;99.90;;;;;;5077566;28;20468;-68
2023/03/31 09:35:38;;;;;;;5.80;2.00;;;14.50;99.90;;;;;;5077475;28;20439;-68
2023/03/31 09:38:05;;;;;;;5.30;1.73;;;14.60;99.90;;;;;;5078686;28;20454;-68
2023/03/31 09:40:32;;;;;;;7.20;2.10;;;14.60;99.90;;;;;;5077015;28;20450;-68
2023/03/31 09:43:03;;;;;;;7.17;2.10;;;14.70;99.90;;;;;;5077373;28;20553;-68
2023/03/31 09:45:32;;;;;;;9.43;1.90;;;14.80;99.90;;;;;;5077315;28;20565;-68
2023/03/31 09:48:05;;;;;;;4.23;1.83;;;14.80;99.90;;;;;;5077232;28;20458;-68
2023/03/31 09:50:37;;;;;;;9.53;1.57;;;14.80;99.90;;;;;;5077176;28;20451;-68
2023/03/31 09:53:05;;;;;;;4.60;1.57;;;14.90;99.90;;;;;;5076954;28;20474;-67
2023/03/31 09:55:41;;;;;;;6.37;1.60;;;14.90;99.90;;;;;;5077152;28;20450;-67
2023/03/31 09:58:13;;;;;;;4.50;1.47;;;14.90;99.90;;;;;;5077229;28;20439;-68
2023/03/31 10:00:42;;;;;;;4.73;1.53;;;14.90;99.90;;;;;;5076758;28;20465;-68
2023/03/31 10:03:13;;;;;;;5.07;1.80;;;14.80;99.90;;;;;;5076618;28;20493;-66
2023/03/31 10:05:49;;;;;;;4.50;2.23;;;14.70;99.90;;;;;;5076761;28;20476;-68
2023/03/31 10:08:23;;;;;;;4.17;1.77;;;14.60;99.90;;;;;;5076993;28;20500;-67
2023/03/31 10:10:52;;;;;;;5.40;2.30;;;14.50;99.90;;;;;;5076503;28;20453;-68
2023/03/31 10:13:24;;;;;;;4.27;1.40;;;14.40;99.90;;;;;;5076837;28;20549;-68
2023/03/31 10:15:53;;;;;;;6.73;2.33;;;14.30;99.90;;;;;;5075897;28;20461;-68
2023/03/31 10:18:20;;;;;;;6.63;2.60;;;14.30;99.90;;;;;;5076332;28;20468;-67
2023/03/31 10:20:51;;;;;;;2.60;1.70;;;14.20;99.90;;;;;;5076285;28;20450;-67
2023/03/31 10:23:23;;;;;;;2.70;1.50;;;14.10;99.90;;;;;;5076454;28;20438;-67
2023/03/31 10:25:51;;;;;;;3.50;1.50;;;14.10;99.90;;;;;;5076244;28;20477;-67
2023/03/31 10:28:21;;;;;;;5.53;2.07;;;14.10;99.90;;;;;;5076153;28;20463;-67
2023/03/31 10:30:50;;;;;;;6.50;2.60;;;14.00;99.90;;;;;;5076180;28;20462;-69
2023/03/31 10:33:20;;;;;;;4.57;2.03;;;13.70;99.90;;;;;;5076101;28;20453;-67
2023/03/31 10:35:49;;;;;;;2.83;2.10;;;13.50;99.90;;;;;;5075839;28;20929;-68
2023/03/31 10:38:23;;;;;;;4.23;2.50;;;13.30;99.90;;;;;;5076008;28;20877;-67
2023/03/31 10:40:52;;;;;;;8.57;3.20;;;13.20;99.90;;;;;;5076329;28;20447;-69
2023/03/31 10:43:25;;;;;;;5.37;3.23;;;13.20;99.90;;;;;;5075872;28;20473;-68
2023/03/31 10:45:55;;;;;;;5.43;3.00;;;13.20;99.90;;;;;;5075587;28;20549;-68
2023/03/31 10:48:26;;;;;;;6.13;2.87;;;13.30;99.90;;;;;;5075497;28;20458;-68
2023/03/31 10:50:53;;;;;;;8.93;2.57;;;13.40;99.90;;;;;;5075758;28;20438;-67
2023/03/31 10:53:20;;;;;;;5.03;2.40;;;13.50;99.90;;;;;;5075207;28;20466;-68
2023/03/31 10:56:09;;;;;;;3.40;3.10;;;13.60;99.90;;;;;;5075465;28;20543;-68
2023/03/31 10:58:55;;;;;;;4.50;3.40;;;13.70;99.90;;;;;;5075857;28;20446;-67
2023/03/31 11:01:32;;;;;;;7.90;3.53;;;13.80;99.90;;;;;;5075691;28;20452;-69
2023/03/31 11:04:29;;;;;;;6.73;3.20;;;13.70;99.90;;;;;;5075131;28;20434;-68
2023/03/31 11:07:03;;;;;;;6.30;3.20;;;13.70;99.90;;;;;;5075432;28;20887;-69
2023/03/31 11:09:49;;;;;;;5.17;2.70;;;13.80;99.90;;;;;;5075378;28;20529;-69
2023/03/31 11:12:22;;;;;;;3.93;3.07;;;13.80;99.90;;;;;;5076536;28;20917;-68
2023/03/31 11:15:03;;;;;;;3.93;3.57;;;13.90;99.90;;;;;;5075821;28;20430;-68
2023/03/31 11:17:42;;;;;;;3.00;2.70;;;13.80;99.90;;;;;;5075482;28;20438;-70
2023/03/31 11:20:18;;;;;;;5.77;2.70;;;13.70;99.90;;;;;;5075182;28;20503;-68
2023/03/31 11:22:54;;;;;;;3.60;2.80;;;13.80;99.90;;;;;;5074705;28;20452;-69
2023/03/31 11:25:27;;;;;;;3.63;2.50;;;13.80;99.90;;;;;;5075232;28;20466;-69
2023/03/31 11:28:27;;;;;;;7.53;2.80;;;14.00;99.90;;;;;;5076044;28;20453;-68
2023/03/31 11:31:06;;;;;;;2.80;2.17;;;14.20;99.90;;;;;;5061242;28;20494;-68
2023/03/31 11:33:57;;;;;;;4.27;3.10;;;14.20;99.90;;;;;;5080820;28;20442;-68
2023/03/31 11:36:48;;;;;;;6.83;3.17;;;14.10;99.90;;;;;;5079244;28;20553;-67
2023/03/31 11:39:28;;;;;;;7.00;2.97;;;14.40;99.90;;;;;;5075537;28;20454;-67
2023/03/31 11:41:58;;;;;;;3.67;2.87;;;14.50;99.90;;;;;;5075130;28;20435;-68
2023/03/31 11:44:41;;;;;;;5.00;2.50;;;14.60;99.90;;;;;;5074524;28;20528;-68
2023/03/31 11:47:13;;;;;;;6.73;3.20;;;14.70;99.90;;;;;;5076986;28;20446;-68
2023/03/31 11:49:45;;;;;;;6.07;1.87;;;14.80;99.90;;;;;;5075919;28;20443;-68
2023/03/31 11:52:16;;;;;;;4.13;1.70;;;14.80;99.90;;;;;;5076175;28;20444;-68
2023/03/31 11:54:57;;;;;;;5.20;1.63;;;14.90;99.90;;;;;;5076217;28;20456;-68
2023/03/31 11:57:30;;;;;;;4.57;1.50;;;15.10;99.90;;;;;;5076237;28;20438;-67
2023/03/31 12:00:05;;;;;;;6.00;2.20;;;15.10;99.90;;;;;;5075847;28;20435;-68
2023/03/31 12:02:40;;;;;;;3.43;1.67;;;15.20;99.90;;;;;;5075445;28;20485;-68
2023/03/31 12:05:11;;;;;;;6.27;1.87;;;15.30;99.90;;;;;;5075593;28;20470;-68
2023/03/31 12:07:43;;;;;;;8.07;2.70;;;15.30;99.90;;;;;;5075890;28;20453;-69
2023/03/31 12:10:19;;;;;;;3.80;2.10;;;15.40;99.90;;;;;;5075582;28;20818;-67
2023/03/31 12:12:51;;;;;;;3.87;2.50;;;15.10;99.90;;;;;;5074962;28;20983;-68
2023/03/31 12:15:23;;;;;;;5.10;3.10;;;15.00;99.90;;;;;;5077524;28;20434;-68
2023/03/31 12:17:57;;;;;;;6.17;3.43;;;14.80;99.90;;;;;;5079572;28;20901;-68
2023/03/31 12:20:31;;;;;;;8.77;3.63;;;14.40;99.90;;;;;;5080417;28;20767;-67
2023/03/31 12:23:00;;;;;;;8.83;4.80;;;13.80;99.90;;;;;;5084063;28;20438;-67
2023/03/31 12:25:38;;;;;;;5.43;4.83;;;13.40;99.90;;;;;;5081289;28;20511;-66
2023/03/31 12:28:05;;;;;;;7.83;5.43;;;13.00;99.90;;;;;;5080898;28;20453;-67
2023/03/31 12:30:36;;;;;;;7.77;4.93;;;12.70;99.90;;;;;;5080989;28;20545;-67
2023/03/31 12:33:09;;;;;;;6.50;5.20;;;12.60;99.90;;;;;;5082731;28;20529;-68
2023/03/31 12:35:46;;;;;;;9.20;5.90;;;12.60;99.90;;;;;;5081024;28;20521;-68
2023/03/31 12:38:36;;;;;;;5.90;5.00;;;12.70;99.90;;;;;;5081357;28;20442;-68
2023/03/31 12:41:13;;;;;;;8.40;4.97;;;12.90;99.90;;;;;;5081939;28;20897;-68
2023/03/31 12:44:14;;;;;;;6.57;5.07;;;13.00;99.90;;;;;;5081797;28;20446;-68
2023/03/31 12:46:56;;;;;;;7.00;4.67;;;13.00;99.90;;;;;;5083578;28;20480;-67
2023/03/31 12:49:37;;;;;;;5.77;4.17;;;13.10;99.90;;;;;;5083006;28;20477;-68
2023/03/31 12:52:07;;;;;;;5.20;3.33;;;13.20;99.90;;;;;;5082542;28;20453;-69
2023/03/31 12:55:00;;;;;;;6.67;3.20;;;13.20;99.90;;;;;;5081549;28;20536;-68
2023/03/31 12:57:27;;;;;;;3.07;2.57;;;13.20;99.90;;;;;;5078522;28;20758;-69
2023/03/31 13:00:20;;;;;;;4.27;2.50;;;13.10;99.90;;;;;;5080012;28;20446;-69
2023/03/31 13:02:48;;;;;;;2.33;1.47;;;12.80;99.90;;;;;;5072182;28;20859;-67
2023/03/31 13:05:48;;;;;;;1.90;1.63;;;12.60;99.90;;;;;;5077848;28;20558;-69
2023/03/31 13:08:49;;;;;;;1.80;1.57;;;12.30;99.90;;;;;;5077388;28;20454;-69